Latest Weather Observations for Solomon Airport

IDW60801

Issued at 5:13 pm WST Thursday 30 May 2024 (issued every 10 minutes, with the page automatically refreshed every 10 minutes)

About weather observations | Map of weather stations | Latest weather observations for WA | Other Formats
Station Details ID: 505060 Name: SOLOMON AIRPORT Lat: -22.25 Lon: 117.85 Height: 611.48 m
Data from the previous 72 hours. | See also: Recent months for locations in Western Australia
Date/Time
WST
Temp
°C
App
Temp
°C
Dew
Point
°C
Rel
Hum
%
Delta-T
°C
Wind Press
QNH
hPa
Press
MSL
hPa
Rain since
9am
mm
Dir  Spd
km/h
Gust
km/h
Spd
kts
Gust
kts
30/05:00pm 23.5 21.9 4.5 29 9.7 NNE 2 6 1 3 1017.2 1014.2 0.0
30/04:30pm 23.7 21.1 4.1 28 9.9 ENE 7 13 4 7 1016.9 1013.9 0.0
30/04:00pm 24.3 21.7 4.1 27 10.3 NNE 7 13 4 7 1016.7 1013.7 0.0
30/03:30pm 24.1 22.1 4.5 28 10.0 W 4 9 2 5 1016.7 1013.7 0.0
30/03:00pm 23.6 20.7 4.5 29 9.7 ESE 9 19 5 10 1016.6 1013.6 0.0
30/02:30pm 23.8 20.1 4.2 28 10.0 ESE 13 20 7 11 1016.6 1013.6 0.0
30/02:00pm 23.9 20.3 4.8 29 9.8 ESE 13 20 7 11 1016.8 1013.8 0.0
30/01:30pm 23.2 21.2 4.2 29 9.6 W 4 7 2 4 1016.9 1013.9 0.0
30/01:00pm 23.1 20.3 5.1 31 9.3 ENE 9 19 5 10 1017.0 1014.0 0.0
30/12:30pm 22.6 19.5 5.5 33 8.8 NE 11 22 6 12 1017.3 1014.3 0.0
30/12:00pm 22.5 19.5 5.9 34 8.6 ENE 11 24 6 13 1017.7 1014.6 0.0
30/11:30am 21.9 18.1 5.8 35 8.3 ENE 15 22 8 12 1018.0 1015.0 0.0
30/11:00am 21.5 17.3 5.8 36 8.1 ENE 17 24 9 13 1018.5 1015.5 0.0
30/10:30am 20.7 17.7 4.3 34 8.2 ENE 9 17 5 9 1018.8 1015.8 0.0
30/10:00am 20.1 16.0 4.2 35 7.9 E 15 24 8 13 1019.0 1016.0 0.0
30/09:30am 18.9 15.2 4.3 38 7.2 ENE 13 20 7 11 1019.4 1016.3 0.0
30/09:00am 17.1 14.8 4.8 44 6.0 ESE 6 9 3 5 1019.4 1016.3 0.0
30/08:30am 15.2 13.4 5.4 52 4.8 W 4 6 2 3 1018.9 1015.9 0.0
30/08:00am 13.2 11.0 5.4 59 3.8 W 6 6 3 3 1018.6 1015.6 0.0
30/07:30am 12.0 9.9 5.9 66 3.0 W 6 7 3 4 1018.4 1015.4 0.0
30/07:00am 9.7 8.0 5.7 76 1.9 WNW 4 6 2 3 1018.1 1015.1 0.0
30/06:30am 10.4 9.1 5.8 73 2.2 NNE 2 4 1 2 1017.7 1014.6 0.0
30/06:00am 12.0 10.6 5.6 65 3.1 NE 2 6 1 3 1017.0 1014.0 0.0
30/05:30am 11.7 10.5 6.4 70 2.6 NNW 2 4 1 2 1016.7 1013.7 0.0
30/05:00am 11.6 9.6 6.1 69 2.7 W 6 6 3 3 1016.5 1013.5 0.0
30/04:30am 11.7 9.7 6.4 70 2.6 W 6 7 3 4 1016.5 1013.5 0.0
30/04:00am 12.1 10.6 6.8 70 2.6 WSW 4 7 2 4 1016.5 1013.5 0.0
30/03:30am 12.3 10.4 6.8 69 2.7 W 6 7 3 4 1016.4 1013.3 0.0
30/03:00am 13.4 11.6 7.0 65 3.2 W 6 7 3 4 1016.5 1013.5 0.0
30/02:30am 14.7 12.9 7.3 61 3.8 SW 6 9 3 5 1016.5 1013.5 0.0
30/02:00am 15.1 13.4 7.6 61 3.8 W 6 9 3 5 1016.5 1013.5 0.0
30/01:30am 15.2 13.7 8.4 64 3.5 W 6 9 3 5 1016.5 1013.5 0.0
30/01:00am 14.5 12.9 8.7 68 3.0 WSW 7 9 4 5 1016.3 1013.2 0.0
30/12:30am 15.1 13.6 8.6 65 3.4 W 6 9 3 5 1016.2 1013.1 0.0
30/12:00am 15.7 14.3 8.7 63 3.7 WNW 6 7 3 4 1016.4 1013.3 0.0
 
Date/Time
WST
Temp
°C
App
Temp
°C
Dew
Point
°C
Rel
Hum
%
Delta-T
°C
Wind Press
QNH
hPa
Press
MSL
hPa
Rain since
9am
mm
Dir  Spd
km/h
Gust
km/h
Spd
kts
Gust
kts
29/11:30pm 15.7 14.1 8.7 63 3.7 W 7 7 4 4 1016.4 1013.3 0.0
29/11:00pm 16.6 15.2 8.8 60 4.1 WNW 6 7 3 4 1016.5 1013.5 0.0
29/10:30pm 16.6 15.2 8.8 60 4.1 W 6 7 3 4 1016.7 1013.7 0.0
29/10:00pm 16.8 15.8 9.0 60 4.2 W 4 6 2 3 1016.7 1013.7 0.0
29/09:30pm 18.0 16.7 9.1 56 4.8 SW 6 7 3 4 1016.7 1013.7 0.0
29/09:00pm 18.9 17.9 8.8 52 5.4 SW 4 7 2 4 1016.7 1013.7 0.0
29/08:30pm 18.4 17.4 8.9 54 5.1 NNW 4 7 2 4 1016.5 1013.5 0.0
29/08:00pm 18.0 17.4 8.8 55 4.9 NW 2 6 1 3 1016.1 1013.0 0.0
29/07:30pm 19.1 17.7 9.0 52 5.5 WSW 6 9 3 5 1015.6 1012.6 0.0
29/07:00pm 19.5 18.0 9.1 51 5.6 SW 7 9 4 5 1015.3 1012.3 0.0
29/06:30pm 19.9 18.4 8.6 48 6.1 SW 6 9 3 5 1014.8 1011.7 0.0
29/06:00pm 21.0 19.2 8.0 43 7.0 SW 7 11 4 6 1014.4 1011.3 0.0
29/05:30pm 22.2 19.2 7.6 39 7.8 SW 13 15 7 8 1014.0 1010.9 0.0
29/05:00pm 23.5 20.1 7.6 36 8.6 SW 15 22 8 12 1013.6 1010.6 0.0
29/04:30pm 23.8 20.5 8.2 37 8.5 WSW 15 20 8 11 1013.3 1010.2 0.0
29/04:00pm 24.0 20.3 8.0 36 8.7 SW 17 24 9 13 1013.1 1010.0 0.0
29/03:30pm 24.4 21.2 8.4 36 8.8 SW 15 20 8 11 1013.0 1009.9 0.0
29/03:00pm 23.4 19.3 7.9 37 8.4 SSW 19 26 10 14 1013.0 1009.9 0.0
29/02:30pm 23.9 19.9 8.3 37 8.5 SW 19 24 10 13 1013.0 1009.9 0.0
29/02:00pm 23.4 20.5 8.3 38 8.3 S 13 22 7 12 1013.1 1010.0 0.0
29/01:30pm 23.2 20.0 8.5 39 8.0 SSW 15 28 8 15 1013.5 1010.4 0.0
29/01:00pm 22.5 19.0 8.6 41 7.6 SSW 17 22 9 12 1013.8 1010.8 0.0
29/12:30pm 22.3 18.8 8.8 42 7.4 SSW 17 26 9 14 1014.0 1010.9 0.0
29/12:00pm 21.7 18.2 8.9 44 7.0 SW 17 28 9 15 1014.7 1011.6 0.0
29/11:30am 21.4 18.4 9.3 46 6.7 SSW 15 26 8 14 1015.1 1012.1 0.0
29/11:00am 20.7 18.5 10.8 53 5.6 SSW 13 24 7 13 1015.3 1012.3 0.0
29/10:30am 19.1 18.4 12.1 64 4.0 W 7 9 4 5 1016.0 1012.9 0.0
29/10:00am 18.4 17.9 12.2 67 3.5 WSW 6 7 3 4 1016.1 1013.0 0.0
29/09:30am 18.0 18.2 12.0 68 3.4 S 2 4 1 2 1016.0 1012.9 0.0
29/09:00am 17.2 16.7 11.9 71 3.0 ESE 6 7 3 4 1015.9 1012.8 1.8
29/08:30am 16.9 16.6 12.6 76 2.5 E 6 7 3 4 1015.8 1012.7 1.8
29/08:00am 16.3 17.1 12.5 78 2.2 CALM 0 2 0 1 1015.3 1012.3 1.8
29/07:30am 15.7 16.6 13.0 84 1.5 CALM 0 4 0 2 1015.4 1012.4 1.8
29/07:00am 15.9 17.1 13.7 87 1.3 CALM 0 4 0 2 1015.1 1012.1 1.8
29/06:30am 16.0 16.7 13.5 85 1.4 NE 2 6 1 3 1014.4 1011.3 1.8
29/06:00am 15.9 16.6 13.4 85 1.4 WSW 2 4 1 2 1014.4 1011.3 1.8
29/05:30am 15.7 16.1 12.6 82 1.8 SSE 2 6 1 3 1014.1 1011.0 1.8
29/05:00am 16.0 15.1 12.7 81 1.9 E 9 15 5 8 1013.1 1010.0 1.8
29/04:30am 16.2 15.5 11.4 73 2.7 WNW 6 9 3 5 1013.6 1010.6 1.8
29/04:00am 16.0 15.9 12.2 78 2.1 NW 4 6 2 3 1013.7 1010.7 1.8
29/03:30am 15.4 13.8 12.7 84 1.5 WSW 13 15 7 8 1014.6 1011.5 1.8
29/03:00am 15.3 14.6 13.3 88 1.1 W 9 13 5 7 1014.5 1011.4 1.8
29/02:30am 15.7 14.4 12.5 81 1.8 SSE 11 17 6 9 1013.4 1010.3 1.8
29/02:00am 16.2 15.6 11.8 75 2.5 NNE 6 13 3 7 1014.0 1010.9 1.8
29/01:30am 16.3 15.6 11.9 75 2.5 NW 7 11 4 6 1015.0 1011.9 1.6
29/01:00am 16.6 15.0 11.5 72 2.8 WNW 11 15 6 8 1015.5 1012.5 1.2
29/12:30am 16.7 14.8 11.8 73 2.8 WNW 13 19 7 10 1015.5 1012.5 0.8
29/12:00am 16.7 15.2 12.0 74 2.6 W 11 17 6 9 1015.3 1012.3 0.2
 
Date/Time
WST
Temp
°C
App
Temp
°C
Dew
Point
°C
Rel
Hum
%
Delta-T
°C
Wind Press
QNH
hPa
Press
MSL
hPa
Rain since
9am
mm
Dir  Spd
km/h
Gust
km/h
Spd
kts
Gust
kts
28/11:30pm 21.0 17.9 7.3 41 7.2 WSW 13 17 7 9 1015.1 1012.1 0.0
28/11:00pm 21.7 17.7 6.8 38 7.8 SW 17 24 9 13 1015.2 1012.2 0.0
28/10:30pm 22.8 20.9 6.6 35 8.6 WNW 6 15 3 8 1014.9 1011.8 0.0
28/10:00pm 23.2 19.3 5.2 31 9.3 NNW 15 24 8 13 1015.1 1012.1 0.0
28/09:30pm 24.1 19.4 2.9 25 10.5 WNW 17 26 9 14 1015.0 1011.9 0.0
28/09:00pm 23.9 20.9 4.3 28 10.0 NW 9 13 5 7 1014.9 1011.8 0.0
28/08:30pm 24.0 21.4 4.4 28 10.0 WNW 7 11 4 6 1014.8 1011.7 0.0
28/08:00pm 23.5 20.9 3.4 27 10.1 WNW 6 9 3 5 1014.5 1011.4 0.0
28/07:30pm 24.2 21.7 3.5 26 10.4 NW 6 9 3 5 1014.3 1011.2 0.0
28/07:00pm 24.3 21.8 3.6 26 10.4 NW 6 9 3 5 1014.3 1011.2 0.0
28/06:30pm 24.8 21.3 3.5 25 10.8 WNW 11 17 6 9 1014.1 1011.0 0.0
28/06:00pm 25.0 21.1 3.6 25 10.9 NW 13 20 7 11 1013.6 1010.6 0.0
28/05:30pm 25.2 21.8 3.8 25 10.9 NW 11 19 6 10 1013.5 1010.4 0.0
28/05:00pm 25.7 21.4 3.0 23 11.4 NW 15 22 8 12 1013.4 1010.3 0.0
28/04:30pm 26.1 21.1 3.4 23 11.5 NNW 19 30 10 16 1013.4 1010.3 0.0
28/04:00pm 26.3 19.8 2.9 22 11.8 NW 26 35 14 19 1013.3 1010.2 0.0
28/03:30pm 26.7 21.1 3.2 22 12.0 NNW 22 32 12 17 1013.3 1010.2 0.0
28/03:00pm 26.8 20.9 4.0 23 11.8 NNW 24 37 13 20 1013.2 1010.1 0.0
28/02:30pm 27.0 22.5 4.1 23 11.9 NW 17 32 9 17 1013.2 1010.1 0.0
28/02:00pm 27.2 22.1 4.3 23 11.9 NW 20 32 11 17 1013.4 1010.3 0.0
28/01:30pm 27.0 22.1 4.1 23 11.9 NNW 19 30 10 16 1013.8 1010.8 0.0
28/01:00pm 27.3 22.8 4.4 23 11.9 N 17 30 9 16 1014.0 1010.9 0.0
28/12:30pm 27.3 22.8 4.4 23 11.9 NNE 17 26 9 14 1014.6 1011.5 0.0
28/12:00pm 26.6 22.4 3.8 23 11.7 N 15 32 8 17 1015.3 1012.3 0.0
28/11:30am 26.4 22.7 4.2 24 11.5 NNE 13 22 7 12 1015.8 1012.7 0.0
28/11:00am 25.9 22.2 4.4 25 11.1 NE 13 24 7 13 1016.0 1012.9 0.0
28/10:30am 25.2 23.5 3.8 25 10.9 ESE 2 7 1 4 1016.5 1013.5 0.0
28/10:00am 24.9 23.5 3.5 25 10.8 CALM 0 4 0 2 1017.0 1014.0 0.0
28/09:30am 24.3 22.4 3.0 25 10.6 SE 2 6 1 3 1017.0 1014.0 0.0
28/09:00am 24.0 22.3 3.9 27 10.2 ESE 2 6 1 3 1017.0 1014.0 0.0
28/08:36am 23.2 21.4 5.2 31 9.3 ENE 4 7 2 4 1016.7 1013.7 0.0
28/08:30am 22.9 20.5 4.4 30 9.4 NE 6 7 3 4 1016.6 1013.6 0.0
28/08:00am 19.2 16.7 4.6 38 7.2 ENE 7 11 4 6 1016.6 1013.6 0.0
28/07:30am 16.7 14.5 3.1 40 6.4 ENE 4 6 2 3 1016.6 1013.6 0.0
28/07:16am 16.6 14.5 3.7 42 6.2 ENE 4 6 2 3 1016.6 1013.6 0.0
28/07:00am 15.4 13.3 3.9 46 5.5 NE 4 4 2 2 1016.6 1013.6 0.0
28/06:59am 15.3 13.2 4.1 47 5.4 NE 4 4 2 2 1016.6 1013.6 0.0
28/06:34am 16.3 13.7 3.4 42 6.1 E 6 7 3 4 1016.5 1013.5 0.0
28/06:30am 17.1 14.6 3.8 41 6.4 E 6 7 3 4 1016.5 1013.5 0.0
28/06:04am 16.0 13.9 3.8 44 5.8 NNE 4 6 2 3 1016.5 1013.5 0.0
28/06:00am 16.5 14.4 3.9 43 6.1 NE 4 6 2 3 1016.5 1013.5 0.0
28/05:30am 17.5 15.3 3.4 39 6.8 E 4 7 2 4 1016.5 1013.5 0.0
28/05:26am 17.4 15.2 3.3 39 6.7 ESE 4 6 2 3 1016.6 1013.6 0.0
28/05:00am 16.9 15.4 3.2 40 6.5 CALM 0 2 0 1 1016.7 1013.7 0.0
28/04:30am 16.8 14.6 3.5 41 6.4 N 4 4 2 2 1016.7 1013.7 0.0
28/04:00am 16.0 14.1 3.1 42 6.1 WNW 2 4 1 2 1016.8 1013.8 0.0
28/03:30am 16.5 14.7 3.2 41 6.3 WSW 2 6 1 3 1017.0 1014.0 0.0
28/03:00am 17.1 15.2 2.7 38 6.8 W 2 6 1 3 1017.1 1014.1 0.0
28/02:30am 17.1 14.3 3.4 40 6.5 W 7 9 4 5 1017.5 1014.4 0.0
28/02:00am 17.4 15.2 3.3 39 6.7 NW 4 7 2 4 1017.5 1014.4 0.0
28/01:30am 16.8 14.9 2.8 39 6.6 ENE 2 6 1 3 1017.8 1014.7 0.0
28/01:00am 16.4 14.0 2.1 38 6.6 SSE 4 7 2 4 1018.0 1015.0 0.0
28/12:30am 18.0 16.1 3.1 37 7.1 SW 2 6 1 3 1018.2 1015.2 0.0
28/12:00am 19.1 17.0 4.1 37 7.4 SSE 4 6 2 3 1017.9 1014.8 0.0
 
Date/Time
WST
Temp
°C
App
Temp
°C
Dew
Point
°C
Rel
Hum
%
Delta-T
°C
Wind Press
QNH
hPa
Press
MSL
hPa
Rain since
9am
mm
Dir  Spd
km/h
Gust
km/h
Spd
kts
Gust
kts
27/11:30pm 19.4 16.9 4.0 36 7.6 ENE 6 7 3 4 1017.9 1014.8 0.0
27/11:00pm 19.0 16.5 4.0 37 7.3 NE 6 9 3 5 1017.9 1014.8 0.0
27/10:30pm 19.7 17.2 3.8 35 7.8 ENE 6 7 3 4 1018.1 1015.1 0.0
27/10:00pm 20.3 17.8 3.9 34 8.1 ENE 6 9 3 5 1018.3 1015.3 0.0
27/09:30pm 21.0 18.4 4.1 33 8.4 NNE 7 7 4 4 1018.7 1015.7 0.0
27/09:00pm 20.4 17.9 3.6 33 8.2 ENE 6 6 3 3 1018.8 1015.8 0.0
27/08:30pm 21.9 19.4 4.5 32 8.8 N 7 9 4 5 1018.6 1015.6 0.0
27/08:00pm 22.8 19.8 4.3 30 9.3 NNE 9 11 5 6 1018.3 1015.3 0.0
27/07:30pm 22.9 19.9 3.9 29 9.6 NNE 9 13 5 7 1018.2 1015.2 0.0
27/07:00pm 23.4 20.5 4.4 29 9.7 NNE 9 11 5 6 1018.2 1015.2 0.0
27/06:30pm 24.8 21.9 4.5 27 10.4 NNE 9 15 5 8 1018.0 1015.0 0.0
27/06:00pm 25.5 22.6 4.6 26 10.8 NE 9 13 5 7 1017.7 1014.6 0.0
27/05:30pm 26.3 22.9 4.1 24 11.4 NE 11 15 6 8 1017.8 1014.7 0.0

Other formats

Comma delimited format used in spreadsheet applications
http://www.bom.gov.au/fwo/IDW60801/IDW60801.99217.axf

JavaScript Object Notation format (JSON) in row-major order
http://www.bom.gov.au/fwo/IDW60801/IDW60801.99217.json

Data quality

Most of these data are generated automatically and are frequently updated. Quality checks on data are not normally performed. It is possible for incorrect values to appear. Refer to information at About Latest Weather Observations and please check the disclaimer before using these data.